Huvudsida
METAR-TAF:

METAR-TAF

Flygplatser :

Pavlodar Airport

Pavlodar, Kazakstan

latitud: 52-11-42N, longitud: 077-04-26E, höjd: 125 m

Aktuellt väderrapport

Denna rapport gjordes för 24 minuter sedan, klockan 15:30 UTC
Vind 14 kt från nord/nordväst
Temperatur 7°C
Fuktighet 76%
Tryck 1004 hPa
Sikt: 7000 m
Mulet på en höjd av 2100 ft, Cumulonimbus.

METAR: UASP 271530Z 34007MPS 7000 OVC021CB 07/03 Q1004 R03/0///70 NOSIG RMK QFE743/0990

Tid: 21:54 (15:54 UTC)


TAF: saknas

Aktuella väderrapporter och prognoser från 4000 flygplatser (METAR- och TAF-rapporter).

De tillgängliga stationerna syns som gula och röda prickar på kartan.

För musen över prickarna för att se namnen på stationerna.

Klicka sedan för att få väderrapporter och prognoser.

För att ändra kartan: Klicka på de gröna knapparna med ett svart kors på för att zooma in; den gröna knappen med ett streck på för att zooma ut; eller på de gröna pilarna för angränsande kartor.


METAR-TAF: